Multan Weather



Multan's Current Weather

Temprature 29o clear sky

clear sky

Rain: 0 %

Min Temprature29o
Max Temprature29o
Humidity37
Wind Speed7.2 m/h
Sun Rise06:17:31
Sun Set17:40:55
Current Time: 18-Oct-2019 15:49:49
Lat/Lon: 30.2, 71.47




Multan's Geo Location



Multan's Weather Forecast

Time Overall Temp Min Temp Max Temp Humidity Wind Speed Rain
18-Oct-2019 (Fri)
17:00:00 clear sky 28.160 28.160 33.000 20 3.46 m/h 0 %
20:00:00 clear sky 23.350 23.350 26.980 34 5.84 m/h 0 %
23:00:00 few clouds 22.630 22.630 25.048 38 4.29 m/h 0 %
19-Oct-2019 (Sat)
02:00:00 scattered clouds 21.650 21.650 22.858 49 4 m/h 0 %
05:00:00 few clouds 21.823 21.823 21.823 49 2.98 m/h 0 %
08:00:00 clear sky 25.131 25.131 25.131 44 3.81 m/h 0 %
11:00:00 clear sky 31.510 31.510 31.510 26 4.2 m/h 0 %
14:00:00 clear sky 34.046 34.046 34.046 20 3.45 m/h 0 %
17:00:00 clear sky 32.422 32.422 32.422 21 3.22 m/h 0 %
20:00:00 clear sky 26.668 26.668 26.668 29 2.39 m/h 0 %
23:00:00 clear sky 24.777 24.777 24.777 32 2.01 m/h 0 %
20-Oct-2019 (Sun)
02:00:00 clear sky 23.037 23.037 23.037 35 1.56 m/h 0 %
05:00:00 clear sky 22.254 22.254 22.254 36 1.6 m/h 0 %
08:00:00 overcast clouds 27.202 27.202 27.202 28 1.76 m/h 0 %
11:00:00 broken clouds 32.500 32.500 32.500 20 1.67 m/h 0 %
14:00:00 clear sky 35.402 35.402 35.402 14 0.9 m/h 0 %
17:00:00 clear sky 33.448 33.448 33.448 15 3.2 m/h 0 %
20:00:00 clear sky 26.842 26.842 26.842 22 2.03 m/h 0 %
23:00:00 clear sky 26.217 26.217 26.217 21 3.98 m/h 0 %
21-Oct-2019 (Mon)
02:00:00 clear sky 23.090 23.090 23.090 25 1.98 m/h 0 %
05:00:00 clear sky 23.031 23.031 23.031 26 3.08 m/h 0 %
08:00:00 clear sky 26.029 26.029 26.029 21 0.14 m/h 0 %
11:00:00 clear sky 32.607 32.607 32.607 14 1.11 m/h 0 %
14:00:00 clear sky 35.375 35.375 35.375 12 1.27 m/h 0 %
17:00:00 clear sky 33.304 33.304 33.304 13 3.26 m/h 0 %
20:00:00 clear sky 25.424 25.424 25.424 21 1.52 m/h 0 %
23:00:00 clear sky 24.510 24.510 24.510 22 2.3 m/h 0 %
22-Oct-2019 (Tue)
02:00:00 clear sky 21.626 21.626 21.626 26 1.07 m/h 0 %
05:00:00 clear sky 20.229 20.229 20.229 28 0.2 m/h 0 %
08:00:00 clear sky 26.772 26.772 26.772 20 2.62 m/h 0 %
11:00:00 clear sky 32.819 32.819 32.819 14 1.64 m/h 0 %
14:00:00 clear sky 35.999 35.999 35.999 10 0.72 m/h 0 %
17:00:00 clear sky 32.702 32.702 32.702 12 1.78 m/h 0 %
20:00:00 scattered clouds 27.750 27.750 27.750 16 2.83 m/h 0 %
23:00:00 scattered clouds 23.699 23.699 23.699 19 1.63 m/h 0 %
23-Oct-2019 (Wed)
02:00:00 scattered clouds 20.336 20.336 20.336 23 0.77 m/h 0 %
05:00:00 few clouds 19.477 19.477 19.477 24 0.57 m/h 0 %
08:00:00 clear sky 27.369 27.369 27.369 15 2.01 m/h 0 %
11:00:00 clear sky 34.045 34.045 34.045 11 3.91 m/h 0 %
14:00:00 clear sky 35.629 35.629 35.629 9 3.43 m/h 0 %

Famous Cities (61)